Time;durP1;ratioP1;P1;durP2;ratioP2;P2;SDS_P1;SDS_P2;PMS_P1;PMS_P2;Temp;Humidity;BMP_temperature;BMP_pressure;BME280_temperature;BME280_humidity;BME280_pressure;Samples;Min_cycle;Max_cycle;Signal;HPM_P1;HPM_P2
2022/03/10 00:00:29;;;;;;;43.25;18.20;;;;;;;;;;5090386;28;20052;-79
2022/03/10 00:02:55;;;;;;;42.70;18.83;;;;;;;;;;5091005;27;20067;-79
2022/03/10 00:05:22;;;;;;;40.55;18.92;;;;;;;;;;5093435;28;20960;-79
2022/03/10 00:07:48;;;;;;;42.63;18.83;;;;;;;;;;5085439;28;20053;-80
2022/03/10 00:10:14;;;;;;;40.47;17.88;;;;;;;;;;5088454;28;20064;-79
2022/03/10 00:12:48;;;;;;;37.03;18.65;;;;;;;;;;5093913;28;20048;-79
2022/03/10 00:15:15;;;;;;;43.47;19.38;;;;;;;;;;5081663;28;20483;-79
2022/03/10 00:17:41;;;;;;;37.58;17.92;;;;;;;;;;5087354;28;20064;-80
2022/03/10 00:20:08;;;;;;;37.58;17.17;;;;;;;;;;5094182;28;20503;-79
2022/03/10 00:22:44;;;;;;;40.83;17.63;;;;;;;;;;5088123;28;20053;-79
2022/03/10 00:25:11;;;;;;;44.05;17.45;;;;;;;;;;5085890;28;20056;-79
2022/03/10 00:27:37;;;;;;;38.75;16.10;;;;;;;;;;5082208;28;20669;-80
2022/03/10 00:30:04;;;;;;;41.85;16.75;;;;;;;;;;5088401;28;20055;-79
2022/03/10 00:32:30;;;;;;;35.03;16.25;;;;;;;;;;5093343;28;20171;-79
2022/03/10 00:34:57;;;;;;;36.38;17.02;;;;;;;;;;5077325;28;20106;-79
2022/03/10 00:37:23;;;;;;;42.15;16.73;;;;;;;;;;5086112;28;20055;-80
2022/03/10 00:39:49;;;;;;;38.17;16.73;;;;;;;;;;5089328;28;20194;-79
2022/03/10 00:42:16;;;;;;;44.22;18.48;;;;;;;;;;5091666;28;20059;-79
2022/03/10 00:44:42;;;;;;;37.50;16.45;;;;;;;;;;5096189;28;20088;-79
2022/03/10 00:47:08;;;;;;;41.65;16.85;;;;;;;;;;5082171;28;20060;-79
2022/03/10 00:49:35;;;;;;;37.97;17.73;;;;;;;;;;5094054;28;20075;-79
2022/03/10 00:52:01;;;;;;;42.45;18.08;;;;;;;;;;5095639;28;20114;-79
2022/03/10 00:54:27;;;;;;;40.47;17.52;;;;;;;;;;5092899;28;20106;-80
2022/03/10 00:56:54;;;;;;;36.28;18.05;;;;;;;;;;5087187;28;20921;-79
2022/03/10 00:59:20;;;;;;;41.40;18.45;;;;;;;;;;5085099;28;20057;-79
2022/03/10 01:01:47;;;;;;;38.17;17.80;;;;;;;;;;5091173;28;20053;-80
2022/03/10 01:04:13;;;;;;;42.67;18.83;;;;;;;;;;5093849;28;20047;-79
2022/03/10 01:06:40;;;;;;;36.92;16.77;;;;;;;;;;5093215;28;20122;-80
2022/03/10 01:09:06;;;;;;;39.03;17.60;;;;;;;;;;5083908;28;20507;-79
2022/03/10 01:11:33;;;;;;;42.13;17.13;;;;;;;;;;5090273;28;20060;-79
2022/03/10 01:14:00;;;;;;;35.42;17.38;;;;;;;;;;5093148;28;20057;-79
2022/03/10 01:16:27;;;;;;;44.78;17.92;;;;;;;;;;5084248;28;20056;-80
2022/03/10 01:18:53;;;;;;;39.63;17.65;;;;;;;;;;5086585;28;20080;-80
2022/03/10 01:21:20;;;;;;;37.55;17.73;;;;;;;;;;5092934;28;20057;-80
2022/03/10 01:23:46;;;;;;;38.92;17.98;;;;;;;;;;5085882;28;20060;-79
2022/03/10 01:26:14;;;;;;;38.20;17.13;;;;;;;;;;5083593;28;20052;-79
2022/03/10 01:28:40;;;;;;;43.63;17.92;;;;;;;;;;5092582;28;20052;-80
2022/03/10 01:31:07;;;;;;;39.83;16.73;;;;;;;;;;5092763;28;20048;-79
2022/03/10 01:33:36;;;;;;;35.20;16.33;;;;;;;;;;5084056;28;20154;-79
2022/03/10 01:36:03;;;;;;;37.85;16.92;;;;;;;;;;5086077;28;20041;-80
2022/03/10 01:38:32;;;;;;;44.35;17.35;;;;;;;;;;5087832;28;20064;-79
2022/03/10 01:40:58;;;;;;;42.17;17.30;;;;;;;;;;5090032;28;20080;-80
2022/03/10 01:43:25;;;;;;;40.83;17.33;;;;;;;;;;5088012;28;20561;-79
2022/03/10 01:45:51;;;;;;;40.70;16.92;;;;;;;;;;5093525;28;20496;-79
2022/03/10 01:48:17;;;;;;;41.67;18.77;;;;;;;;;;5093303;28;20103;-79
2022/03/10 01:50:44;;;;;;;39.97;17.27;;;;;;;;;;5092010;28;20102;-79
2022/03/10 01:53:10;;;;;;;41.95;18.00;;;;;;;;;;5087007;28;20091;-79
2022/03/10 01:55:37;;;;;;;43.60;18.48;;;;;;;;;;5087985;28;20103;-80
2022/03/10 01:58:03;;;;;;;40.28;17.95;;;;;;;;;;5093534;28;20056;-80
2022/03/10 02:00:30;;;;;;;40.78;18.40;;;;;;;;;;5091265;28;20233;-79
2022/03/10 02:02:56;;;;;;;42.80;19.33;;;;;;;;;;5091002;28;20075;-79
2022/03/10 02:05:23;;;;;;;40.80;17.38;;;;;;;;;;5093946;28;20080;-80
2022/03/10 02:10:35;;;;;;;43.03;18.35;;;;;;;;;;5090679;28;20171;-79
2022/03/10 02:13:02;;;;;;;41.30;18.05;;;;;;;;;;5087623;28;20061;-79
2022/03/10 02:18:19;;;;;;;44.58;17.95;;;;;;;;;;5084678;28;20099;-80
2022/03/10 02:20:45;;;;;;;39.45;18.42;;;;;;;;;;5092538;28;20083;-80
2022/03/10 02:23:14;;;;;;;40.47;18.23;;;;;;;;;;5091695;28;20056;-79
2022/03/10 02:25:42;;;;;;;44.85;17.75;;;;;;;;;;5093918;28;20048;-80
2022/03/10 02:28:09;;;;;;;38.97;17.48;;;;;;;;;;5090328;28;20121;-80
2022/03/10 02:30:39;;;;;;;42.75;17.92;;;;;;;;;;5087401;28;20056;-80
2022/03/10 02:33:05;;;;;;;40.17;17.65;;;;;;;;;;5091523;28;20155;-79
2022/03/10 02:35:32;;;;;;;42.15;17.55;;;;;;;;;;5087733;28;20053;-79
2022/03/10 02:37:58;;;;;;;39.83;17.98;;;;;;;;;;5080432;28;20114;-80
2022/03/10 02:40:25;;;;;;;39.60;18.30;;;;;;;;;;5091676;28;20064;-80
2022/03/10 02:42:52;;;;;;;38.00;17.50;;;;;;;;;;5091864;28;20529;-80
2022/03/10 02:45:20;;;;;;;38.22;17.55;;;;;;;;;;5090934;28;20056;-80
2022/03/10 02:47:47;;;;;;;40.00;17.55;;;;;;;;;;5098815;28;20752;-80
2022/03/10 02:50:13;;;;;;;42.92;17.38;;;;;;;;;;5091883;28;20053;-79
2022/03/10 02:52:42;;;;;;;42.63;16.70;;;;;;;;;;5078879;28;20045;-80
2022/03/10 02:55:08;;;;;;;40.75;16.25;;;;;;;;;;5087526;28;20511;-80
2022/03/10 02:57:37;;;;;;;36.67;16.65;;;;;;;;;;5086559;28;20071;-79
2022/03/10 03:00:04;;;;;;;38.55;16.67;;;;;;;;;;5092154;28;20056;-79
2022/03/10 03:02:31;;;;;;;35.75;15.88;;;;;;;;;;5082850;28;20072;-80
2022/03/10 03:04:57;;;;;;;37.42;16.55;;;;;;;;;;5077712;28;20071;-80
2022/03/10 03:07:24;;;;;;;40.45;17.27;;;;;;;;;;5090355;28;20134;-80
2022/03/10 03:09:50;;;;;;;38.22;16.13;;;;;;;;;;5090056;28;20098;-79
2022/03/10 03:12:17;;;;;;;36.65;15.68;;;;;;;;;;5089935;28;20052;-80
2022/03/10 03:14:43;;;;;;;36.35;16.95;;;;;;;;;;5090634;28;20056;-80
2022/03/10 03:17:10;;;;;;;33.90;15.57;;;;;;;;;;5085959;28;20567;-80
2022/03/10 03:19:36;;;;;;;36.92;16.10;;;;;;;;;;5089134;28;20628;-80
2022/03/10 03:22:03;;;;;;;36.28;16.73;;;;;;;;;;5077860;28;20053;-80
2022/03/10 03:24:30;;;;;;;37.70;15.88;;;;;;;;;;5073704;28;20498;-77
2022/03/10 03:26:56;;;;;;;38.33;15.82;;;;;;;;;;5073503;28;20136;-78
2022/03/10 03:29:23;;;;;;;36.63;16.17;;;;;;;;;;5082390;28;20092;-78
2022/03/10 03:31:49;;;;;;;35.75;15.13;;;;;;;;;;5084455;28;20083;-78
2022/03/10 03:34:16;;;;;;;36.17;14.88;;;;;;;;;;5086030;28;20044;-78
2022/03/10 03:36:43;;;;;;;33.35;16.13;;;;;;;;;;5087501;28;20516;-78
2022/03/10 03:39:10;;;;;;;36.63;16.38;;;;;;;;;;5080167;28;20052;-78
2022/03/10 03:41:36;;;;;;;35.38;16.40;;;;;;;;;;5089559;28;20056;-78
2022/03/10 03:44:09;;;;;;;39.80;16.80;;;;;;;;;;5082474;28;20083;-78
2022/03/10 03:46:35;;;;;;;35.10;16.17;;;;;;;;;;5089092;28;20056;-78
2022/03/10 03:49:05;;;;;;;39.28;17.52;;;;;;;;;;5080887;28;20511;-78
2022/03/10 03:51:32;;;;;;;37.85;16.15;;;;;;;;;;5088857;28;20491;-78
2022/03/10 03:53:58;;;;;;;37.47;16.67;;;;;;;;;;5085711;28;20052;-78
2022/03/10 03:56:25;;;;;;;40.08;17.10;;;;;;;;;;5078826;28;20091;-79
2022/03/10 03:58:51;;;;;;;37.97;16.52;;;;;;;;;;5089942;28;20154;-78
2022/03/10 04:01:18;;;;;;;37.22;17.13;;;;;;;;;;5090529;28;20103;-78
2022/03/10 04:03:44;;;;;;;38.38;15.65;;;;;;;;;;5087804;28;20049;-78
2022/03/10 04:06:12;;;;;;;35.50;16.75;;;;;;;;;;5077753;28;20064;-78
2022/03/10 04:08:39;;;;;;;38.13;16.85;;;;;;;;;;5085678;28;20396;-78
2022/03/10 04:11:05;;;;;;;39.25;15.82;;;;;;;;;;5097270;28;20130;-78
2022/03/10 04:13:32;;;;;;;38.63;17.63;;;;;;;;;;5082054;28;20049;-78
2022/03/10 04:15:58;;;;;;;38.33;16.95;;;;;;;;;;5082064;28;20057;-79
2022/03/10 04:18:25;;;;;;;34.65;15.30;;;;;;;;;;5088817;28;20130;-78
2022/03/10 04:20:52;;;;;;;35.28;16.17;;;;;;;;;;5089900;28;20178;-78
2022/03/10 04:23:18;;;;;;;34.70;16.10;;;;;;;;;;5089343;28;20431;-78
2022/03/10 04:25:44;;;;;;;39.03;16.38;;;;;;;;;;5089240;28;20052;-78
2022/03/10 04:28:11;;;;;;;36.58;15.80;;;;;;;;;;5086715;28;20593;-78
2022/03/10 04:30:43;;;;;;;34.92;15.70;;;;;;;;;;5088988;28;20750;-78
2022/03/10 04:33:09;;;;;;;38.35;15.73;;;;;;;;;;5086474;28;20079;-78
2022/03/10 04:35:36;;;;;;;39.45;16.13;;;;;;;;;;5083135;28;20083;-78
2022/03/10 04:38:02;;;;;;;38.83;16.27;;;;;;;;;;5088254;28;20412;-78
2022/03/10 04:40:29;;;;;;;33.80;15.50;;;;;;;;;;5085469;28;20057;-78
2022/03/10 04:42:55;;;;;;;36.55;16.08;;;;;;;;;;5089809;28;20048;-78
2022/03/10 04:45:23;;;;;;;34.33;15.90;;;;;;;;;;5089854;28;20198;-78
2022/03/10 04:47:50;;;;;;;36.17;14.75;;;;;;;;;;5089514;28;20142;-79
2022/03/10 04:50:17;;;;;;;39.80;15.63;;;;;;;;;;5078994;28;20532;-78
2022/03/10 04:52:44;;;;;;;36.95;15.38;;;;;;;;;;5088346;28;20133;-78
2022/03/10 04:55:11;;;;;;;33.83;14.55;;;;;;;;;;5087332;28;20056;-78
2022/03/10 04:57:39;;;;;;;33.85;14.63;;;;;;;;;;5085534;28;20084;-78
2022/03/10 05:00:08;;;;;;;31.33;14.63;;;;;;;;;;5085558;28;20114;-78
2022/03/10 05:02:35;;;;;;;32.55;15.27;;;;;;;;;;5088904;28;20114;-78
2022/03/10 05:05:02;;;;;;;32.33;15.65;;;;;;;;;;5088141;28;20102;-78
2022/03/10 05:07:30;;;;;;;31.33;14.77;;;;;;;;;;5083221;28;20075;-79
2022/03/10 05:09:56;;;;;;;34.75;15.38;;;;;;;;;;5077116;28;20053;-79
2022/03/10 05:12:23;;;;;;;33.60;15.27;;;;;;;;;;5082163;28;20107;-79
2022/03/10 05:14:49;;;;;;;31.70;14.13;;;;;;;;;;5081324;28;20608;-79
2022/03/10 05:17:15;;;;;;;35.80;15.63;;;;;;;;;;5082965;28;20110;-79
2022/03/10 05:19:42;;;;;;;33.10;16.00;;;;;;;;;;5088955;28;20140;-79
2022/03/10 05:22:08;;;;;;;33.22;15.73;;;;;;;;;;5081116;28;20064;-79
2022/03/10 05:24:35;;;;;;;37.90;15.07;;;;;;;;;;5089007;28;20507;-80
2022/03/10 05:27:01;;;;;;;33.17;15.52;;;;;;;;;;5090108;28;20049;-78
2022/03/10 05:29:27;;;;;;;33.63;16.35;;;;;;;;;;5085930;28;20053;-78
2022/03/10 05:31:54;;;;;;;36.65;15.32;;;;;;;;;;5087646;28;20053;-78
2022/03/10 05:34:20;;;;;;;33.72;14.55;;;;;;;;;;5081317;28;20044;-78
2022/03/10 05:36:47;;;;;;;38.35;16.00;;;;;;;;;;5086306;28;20052;-78
2022/03/10 05:39:13;;;;;;;36.95;15.10;;;;;;;;;;5078341;28;20095;-79
2022/03/10 05:41:40;;;;;;;35.50;15.10;;;;;;;;;;5077560;28;20052;-81
2022/03/10 05:44:07;;;;;;;35.05;15.55;;;;;;;;;;5087546;28;20056;-78
2022/03/10 05:46:33;;;;;;;31.95;14.90;;;;;;;;;;5090135;28;20048;-80
2022/03/10 05:49:00;;;;;;;39.55;15.85;;;;;;;;;;5082656;28;20053;-78
2022/03/10 05:51:26;;;;;;;35.38;15.68;;;;;;;;;;5084472;28;20118;-78
2022/03/10 05:53:52;;;;;;;37.90;14.90;;;;;;;;;;5074465;28;20056;-78
2022/03/10 05:56:19;;;;;;;32.70;14.50;;;;;;;;;;5085219;28;20109;-78
2022/03/10 05:58:45;;;;;;;39.50;16.67;;;;;;;;;;5088366;28;20534;-78
2022/03/10 06:01:14;;;;;;;36.47;16.25;;;;;;;;;;5085721;28;20114;-78
2022/03/10 06:03:41;;;;;;;37.28;15.40;;;;;;;;;;5087110;28;20059;-78
2022/03/10 06:06:09;;;;;;;34.95;14.63;;;;;;;;;;5087996;28;20049;-78
2022/03/10 06:08:35;;;;;;;33.97;15.27;;;;;;;;;;5090183;27;20055;-80
2022/03/10 06:11:04;;;;;;;33.05;15.32;;;;;;;;;;5087597;28;20583;-80
2022/03/10 06:13:30;;;;;;;38.05;15.90;;;;;;;;;;5091946;28;20060;-80
2022/03/10 06:15:56;;;;;;;35.58;15.57;;;;;;;;;;5086719;28;20053;-80
2022/03/10 06:18:23;;;;;;;36.53;15.82;;;;;;;;;;5080284;28;20052;-80
2022/03/10 06:20:49;;;;;;;34.92;14.88;;;;;;;;;;5088703;28;20052;-80
2022/03/10 06:23:16;;;;;;;32.85;14.70;;;;;;;;;;5088684;28;20554;-80
2022/03/10 06:25:44;;;;;;;35.25;14.93;;;;;;;;;;5085586;28;20053;-80
2022/03/10 06:28:10;;;;;;;34.63;15.23;;;;;;;;;;5097687;28;20725;-80
2022/03/10 06:30:37;;;;;;;37.78;15.68;;;;;;;;;;5089794;28;20041;-80
2022/03/10 06:33:04;;;;;;;50.17;18.08;;;;;;;;;;5091230;28;20059;-80
2022/03/10 06:35:31;;;;;;;39.58;16.45;;;;;;;;;;5082908;28;20057;-80
2022/03/10 06:37:57;;;;;;;42.85;16.35;;;;;;;;;;5082315;27;20602;-78
2022/03/10 06:40:24;;;;;;;41.53;15.68;;;;;;;;;;5081235;28;20130;-78
2022/03/10 06:42:50;;;;;;;38.38;15.52;;;;;;;;;;5077416;28;20597;-79
2022/03/10 06:45:16;;;;;;;55.40;15.90;;;;;;;;;;5091633;28;20600;-78
2022/03/10 06:47:43;;;;;;;39.53;16.20;;;;;;;;;;5086085;28;20503;-79
2022/03/10 06:50:09;;;;;;;32.92;15.38;;;;;;;;;;5078679;28;20504;-78
2022/03/10 06:52:35;;;;;;;40.50;16.35;;;;;;;;;;5077652;28;20052;-78
2022/03/10 06:55:02;;;;;;;35.55;14.63;;;;;;;;;;5087312;28;20513;-78
2022/03/10 06:57:28;;;;;;;38.03;16.15;;;;;;;;;;5078653;28;20084;-78
2022/03/10 06:59:55;;;;;;;33.35;14.07;;;;;;;;;;5079766;28;20590;-78
2022/03/10 07:02:22;;;;;;;34.72;15.00;;;;;;;;;;5083333;28;20094;-78
2022/03/10 07:04:49;;;;;;;34.03;15.18;;;;;;;;;;5084605;28;20049;-79
2022/03/10 07:07:19;;;;;;;32.58;14.65;;;;;;;;;;5081608;28;20044;-78
2022/03/10 07:09:45;;;;;;;31.70;13.70;;;;;;;;;;5081004;28;20057;-79
2022/03/10 07:12:11;;;;;;;32.88;13.75;;;;;;;;;;5081308;28;20110;-78
2022/03/10 07:14:38;;;;;;;30.10;14.57;;;;;;;;;;5096564;28;20517;-79
2022/03/10 07:17:05;;;;;;;29.75;14.00;;;;;;;;;;5086585;27;20098;-79
2022/03/10 07:19:31;;;;;;;31.23;14.45;;;;;;;;;;5087771;28;20052;-79
2022/03/10 07:21:58;;;;;;;34.85;14.68;;;;;;;;;;5087338;28;20052;-78
2022/03/10 07:24:25;;;;;;;28.98;12.93;;;;;;;;;;5086805;28;20156;-79
2022/03/10 07:26:58;;;;;;;30.83;13.75;;;;;;;;;;5085541;28;20101;-79
2022/03/10 07:29:24;;;;;;;31.48;13.82;;;;;;;;;;5078043;28;20056;-79
2022/03/10 07:31:51;;;;;;;30.77;13.57;;;;;;;;;;5085354;28;20057;-78
2022/03/10 07:34:17;;;;;;;33.35;13.05;;;;;;;;;;5075835;28;20053;-78
2022/03/10 07:36:43;;;;;;;33.92;14.07;;;;;;;;;;5080156;28;20053;-78
2022/03/10 07:39:10;;;;;;;31.73;14.60;;;;;;;;;;5078266;27;20056;-79
2022/03/10 07:41:37;;;;;;;30.10;13.85;;;;;;;;;;5083077;28;20413;-79
2022/03/10 07:44:04;;;;;;;28.55;12.98;;;;;;;;;;5086674;28;20515;-78
2022/03/10 07:46:30;;;;;;;36.45;13.65;;;;;;;;;;5079570;28;20056;-79
2022/03/10 07:48:59;;;;;;;28.25;14.20;;;;;;;;;;5085828;28;20376;-79
2022/03/10 07:51:26;;;;;;;33.13;13.55;;;;;;;;;;5084445;28;20056;-80
2022/03/10 07:53:52;;;;;;;32.85;14.13;;;;;;;;;;5080903;28;20079;-79
2022/03/10 07:56:18;;;;;;;28.73;13.25;;;;;;;;;;5083697;28;20056;-79
2022/03/10 07:58:45;;;;;;;28.98;13.07;;;;;;;;;;5084617;28;20098;-79
2022/03/10 08:01:12;;;;;;;24.63;12.43;;;;;;;;;;5079425;28;20060;-79
2022/03/10 08:03:39;;;;;;;30.80;12.18;;;;;;;;;;5083942;28;20056;-78
2022/03/10 08:06:06;;;;;;;28.25;12.32;;;;;;;;;;5067639;28;20135;-79
2022/03/10 08:08:32;;;;;;;27.08;12.93;;;;;;;;;;5073325;28;20855;-79
2022/03/10 08:10:59;;;;;;;29.40;13.27;;;;;;;;;;5084228;28;20096;-78
2022/03/10 08:13:26;;;;;;;26.38;12.85;;;;;;;;;;5086458;28;20102;-79
2022/03/10 08:15:53;;;;;;;25.63;12.70;;;;;;;;;;5086704;28;20060;-79
2022/03/10 08:18:20;;;;;;;31.70;13.70;;;;;;;;;;5084736;28;20059;-79
2022/03/10 08:20:47;;;;;;;31.20;12.63;;;;;;;;;;5085474;28;20061;-79
2022/03/10 08:23:13;;;;;;;27.90;13.23;;;;;;;;;;5085642;28;20076;-79
2022/03/10 08:25:39;;;;;;;28.80;12.77;;;;;;;;;;5087561;28;20521;-79
2022/03/10 08:28:07;;;;;;;25.63;12.65;;;;;;;;;;5090868;28;20064;-79
2022/03/10 08:30:33;;;;;;;27.17;12.68;;;;;;;;;;5091846;28;20255;-79
2022/03/10 08:32:59;;;;;;;26.90;12.05;;;;;;;;;;5090729;28;20040;-79
2022/03/10 08:35:26;;;;;;;29.40;13.82;;;;;;;;;;5090066;28;20547;-78
2022/03/10 08:37:52;;;;;;;27.75;13.32;;;;;;;;;;5090470;28;20064;-79
2022/03/10 08:40:19;;;;;;;25.05;12.20;;;;;;;;;;5090699;28;20060;-79
2022/03/10 08:42:46;;;;;;;26.52;12.55;;;;;;;;;;5092038;28;20056;-79
2022/03/10 08:45:13;;;;;;;28.13;13.35;;;;;;;;;;5092835;28;20450;-79
2022/03/10 08:47:39;;;;;;;27.92;12.77;;;;;;;;;;5092058;28;20075;-79
2022/03/10 08:50:06;;;;;;;29.75;13.10;;;;;;;;;;5092515;28;20063;-79
2022/03/10 08:52:32;;;;;;;27.88;13.57;;;;;;;;;;5091914;28;20056;-79
2022/03/10 08:54:59;;;;;;;26.10;13.05;;;;;;;;;;5091859;28;20048;-80
2022/03/10 08:57:25;;;;;;;26.48;13.45;;;;;;;;;;5103704;27;20071;-80
2022/03/10 08:59:52;;;;;;;25.92;13.00;;;;;;;;;;5089850;28;20056;-79
2022/03/10 09:02:21;;;;;;;26.33;13.32;;;;;;;;;;5090473;28;20448;-79
2022/03/10 09:04:48;;;;;;;29.70;13.40;;;;;;;;;;5090621;28;20057;-79
2022/03/10 09:07:15;;;;;;;28.33;13.60;;;;;;;;;;5089495;28;20082;-79
2022/03/10 09:09:44;;;;;;;32.50;14.13;;;;;;;;;;5089738;28;20127;-78
2022/03/10 09:12:10;;;;;;;28.83;14.07;;;;;;;;;;5088950;28;20147;-79
2022/03/10 09:14:36;;;;;;;28.50;14.50;;;;;;;;;;5084235;28;20053;-78
2022/03/10 09:17:03;;;;;;;30.08;14.43;;;;;;;;;;5089654;28;20052;-78
2022/03/10 09:19:30;;;;;;;25.25;13.32;;;;;;;;;;5089180;28;20052;-79
2022/03/10 09:21:58;;;;;;;29.40;14.07;;;;;;;;;;5088773;28;20568;-79
2022/03/10 09:24:30;;;;;;;31.23;13.60;;;;;;;;;;5089509;28;20150;-79
2022/03/10 09:26:56;;;;;;;29.45;13.35;;;;;;;;;;5080366;28;20568;-79
2022/03/10 09:29:23;;;;;;;28.25;13.70;;;;;;;;;;5089537;28;20045;-79
2022/03/10 09:31:49;;;;;;;30.58;13.60;;;;;;;;;;5088860;28;20098;-79
2022/03/10 09:34:16;;;;;;;27.25;14.27;;;;;;;;;;5086596;28;20110;-78
2022/03/10 09:36:42;;;;;;;28.20;13.85;;;;;;;;;;5088793;28;20053;-79
2022/03/10 09:39:09;;;;;;;27.75;14.45;;;;;;;;;;5092745;28;20594;-79
2022/03/10 09:41:37;;;;;;;27.00;14.35;;;;;;;;;;5089615;28;20052;-79
2022/03/10 09:44:14;;;;;;;26.65;13.35;;;;;;;;;;5087990;28;20122;-78
2022/03/10 09:46:42;;;;;;;27.58;13.55;;;;;;;;;;5084241;28;20530;-79
2022/03/10 09:49:09;;;;;;;29.58;13.43;;;;;;;;;;5086860;28;20479;-79
2022/03/10 09:51:36;;;;;;;24.55;13.40;;;;;;;;;;5086802;28;20143;-79
2022/03/10 09:54:02;;;;;;;26.92;13.82;;;;;;;;;;5080750;28;21644;-79
2022/03/10 09:56:30;;;;;;;27.33;13.65;;;;;;;;;;5089439;28;20079;-79
2022/03/10 09:58:56;;;;;;;28.77;15.10;;;;;;;;;;5088535;28;20509;-79
2022/03/10 10:01:25;;;;;;;28.92;13.25;;;;;;;;;;5089656;28;20060;-79
2022/03/10 10:03:52;;;;;;;25.88;13.00;;;;;;;;;;5084830;28;20463;-78
2022/03/10 10:06:19;;;;;;;32.00;13.15;;;;;;;;;;5089504;28;20045;-78
2022/03/10 10:08:53;;;;;;;27.63;13.75;;;;;;;;;;5086847;28;20122;-78
2022/03/10 10:11:28;;;;;;;29.25;13.73;;;;;;;;;;5084439;28;20053;-79
2022/03/10 10:13:55;;;;;;;27.65;14.15;;;;;;;;;;5084715;28;20903;-79
2022/03/10 10:16:22;;;;;;;28.13;13.52;;;;;;;;;;5088876;28;20053;-79
2022/03/10 10:18:53;;;;;;;27.98;13.55;;;;;;;;;;5089210;28;20057;-79
2022/03/10 10:21:20;;;;;;;25.83;14.32;;;;;;;;;;5086109;28;20048;-78
2022/03/10 10:23:48;;;;;;;27.23;14.05;;;;;;;;;;5089843;28;20049;-79
2022/03/10 10:26:14;;;;;;;24.48;13.05;;;;;;;;;;5090028;28;20053;-79
2022/03/10 10:28:46;;;;;;;28.00;13.52;;;;;;;;;;5085617;28;20064;-78
2022/03/10 10:31:13;;;;;;;26.90;13.63;;;;;;;;;;5087614;28;20210;-78
2022/03/10 10:33:41;;;;;;;27.40;13.55;;;;;;;;;;5069836;28;20121;-78
2022/03/10 10:36:12;;;;;;;27.40;14.25;;;;;;;;;;5086773;28;20090;-78
2022/03/10 10:38:38;;;;;;;25.45;14.48;;;;;;;;;;5087314;28;20527;-79
2022/03/10 10:41:19;;;;;;;27.00;13.68;;;;;;;;;;5090682;28;20057;-78
2022/03/10 10:43:47;;;;;;;29.13;14.18;;;;;;;;;;5088215;28;20053;-78
2022/03/10 10:46:23;;;;;;;27.00;13.90;;;;;;;;;;5089058;28;20126;-78
2022/03/10 10:48:52;;;;;;;25.50;13.50;;;;;;;;;;5089179;28;20725;-78
2022/03/10 10:51:29;;;;;;;27.38;13.65;;;;;;;;;;5082733;28;20504;-78
2022/03/10 10:53:56;;;;;;;24.33;12.88;;;;;;;;;;5080378;28;20106;-78
2022/03/10 10:56:23;;;;;;;27.80;13.65;;;;;;;;;;5092028;28;20134;-78
2022/03/10 10:58:52;;;;;;;27.98;13.50;;;;;;;;;;5089225;28;20107;-78
2022/03/10 11:01:28;;;;;;;24.73;13.13;;;;;;;;;;5090346;28;20045;-78
2022/03/10 11:03:57;;;;;;;24.40;13.20;;;;;;;;;;5090792;28;20053;-79
2022/03/10 11:06:25;;;;;;;23.50;13.32;;;;;;;;;;5092443;28;20106;-79
2022/03/10 11:08:52;;;;;;;26.45;13.55;;;;;;;;;;5082762;28;20088;-78
2022/03/10 11:11:20;;;;;;;25.02;12.85;;;;;;;;;;5082217;28;20052;-78
2022/03/10 11:13:50;;;;;;;23.52;12.75;;;;;;;;;;5089322;28;20102;-79
2022/03/10 11:16:17;;;;;;;23.45;12.45;;;;;;;;;;5088814;28;20064;-79
2022/03/10 11:18:47;;;;;;;23.08;12.30;;;;;;;;;;5089867;28;20069;-79
2022/03/10 11:21:23;;;;;;;22.55;12.52;;;;;;;;;;5092120;28;20844;-79
2022/03/10 11:23:59;;;;;;;24.65;13.20;;;;;;;;;;5090249;28;20040;-79
2022/03/10 11:26:45;;;;;;;21.08;12.05;;;;;;;;;;5090990;28;20103;-79
2022/03/10 11:29:12;;;;;;;23.45;12.77;;;;;;;;;;5089150;28;20049;-79
2022/03/10 11:31:39;;;;;;;22.58;12.57;;;;;;;;;;5085664;28;20051;-78
2022/03/10 11:34:05;;;;;;;23.73;12.55;;;;;;;;;;5088088;28;20099;-78
2022/03/10 11:36:31;;;;;;;29.38;14.98;;;;;;;;;;5087028;28;20110;-78
2022/03/10 11:38:59;;;;;;;29.70;15.02;;;;;;;;;;5087701;28;20044;-78
2022/03/10 11:41:26;;;;;;;27.45;14.65;;;;;;;;;;5083501;28;20102;-80
2022/03/10 11:43:54;;;;;;;27.27;13.88;;;;;;;;;;5088642;28;20573;-78
2022/03/10 11:46:22;;;;;;;29.65;15.02;;;;;;;;;;5085336;28;20114;-77
2022/03/10 11:49:03;;;;;;;26.45;14.60;;;;;;;;;;5078351;28;20056;-78
2022/03/10 11:51:39;;;;;;;28.67;14.40;;;;;;;;;;5085815;28;20059;-78
2022/03/10 11:54:06;;;;;;;25.30;14.20;;;;;;;;;;5086372;28;20053;-78
2022/03/10 11:56:33;;;;;;;32.78;14.77;;;;;;;;;;5088698;28;20108;-78
2022/03/10 11:59:15;;;;;;;27.02;14.50;;;;;;;;;;5090267;28;20098;-78
2022/03/10 12:01:42;;;;;;;26.05;14.15;;;;;;;;;;5096362;28;20052;-77
2022/03/10 12:04:12;;;;;;;27.55;14.50;;;;;;;;;;5093614;28;20064;-78
2022/03/10 12:06:46;;;;;;;30.40;15.18;;;;;;;;;;5093033;28;20048;-78
2022/03/10 12:09:25;;;;;;;27.58;14.50;;;;;;;;;;5095547;28;20067;-78
2022/03/10 12:11:52;;;;;;;25.38;14.23;;;;;;;;;;5091131;28;20098;-78
2022/03/10 12:14:25;;;;;;;28.05;14.52;;;;;;;;;;5091789;28;20570;-78
2022/03/10 12:16:52;;;;;;;25.58;14.50;;;;;;;;;;5077102;28;20503;-79
2022/03/10 12:19:19;;;;;;;24.40;13.93;;;;;;;;;;5084997;28;20858;-79
2022/03/10 12:21:45;;;;;;;30.42;14.27;;;;;;;;;;5095793;28;20048;-78
2022/03/10 12:24:12;;;;;;;26.17;13.70;;;;;;;;;;5087552;27;20507;-78
2022/03/10 12:26:44;;;;;;;27.25;14.30;;;;;;;;;;5093620;28;20052;-78
2022/03/10 12:29:11;;;;;;;30.70;14.73;;;;;;;;;;5091930;28;20052;-77
2022/03/10 12:31:39;;;;;;;25.95;13.70;;;;;;;;;;5091326;28;20048;-78
2022/03/10 12:34:07;;;;;;;23.75;13.35;;;;;;;;;;5093177;28;20052;-78
2022/03/10 12:36:35;;;;;;;30.88;13.50;;;;;;;;;;5091743;28;20067;-78
2022/03/10 12:39:03;;;;;;;24.50;12.15;;;;;;;;;;5092782;28;20110;-78
2022/03/10 12:41:31;;;;;;;23.17;12.38;;;;;;;;;;5094137;28;20538;-78
2022/03/10 12:44:01;;;;;;;23.45;11.90;;;;;;;;;;5092588;28;20048;-78
2022/03/10 12:46:29;;;;;;;24.20;12.43;;;;;;;;;;5094144;28;20102;-78
2022/03/10 12:49:14;;;;;;;23.05;12.07;;;;;;;;;;5094051;28;20114;-78
2022/03/10 12:51:41;;;;;;;25.40;12.40;;;;;;;;;;5092901;28;20067;-78
2022/03/10 12:54:07;;;;;;;27.60;12.60;;;;;;;;;;5090098;28;20690;-79
2022/03/10 12:56:50;;;;;;;22.05;12.75;;;;;;;;;;5082410;28;20051;-78
2022/03/10 12:59:24;;;;;;;24.05;11.95;;;;;;;;;;5091989;28;20056;-78
2022/03/10 13:01:50;;;;;;;28.40;12.20;;;;;;;;;;5085884;28;20107;-79
2022/03/10 13:04:20;;;;;;;24.23;12.95;;;;;;;;;;5087269;28;20192;-78
2022/03/10 13:06:48;;;;;;;22.77;12.23;;;;;;;;;;5092178;28;20052;-78
2022/03/10 13:09:20;;;;;;;22.92;13.07;;;;;;;;;;5092502;28;20053;-78
2022/03/10 13:11:47;;;;;;;22.45;12.95;;;;;;;;;;5093831;28;20053;-79
2022/03/10 13:14:15;;;;;;;22.80;12.73;;;;;;;;;;5091272;28;20102;-79
2022/03/10 13:16:42;;;;;;;25.63;13.32;;;;;;;;;;5088283;28;20052;-78
2022/03/10 13:19:26;;;;;;;22.45;13.05;;;;;;;;;;5090148;28;20028;-79
2022/03/10 13:21:53;;;;;;;26.35;13.15;;;;;;;;;;5089703;28;20153;-78
2022/03/10 13:24:33;;;;;;;22.15;12.98;;;;;;;;;;5095074;28;20049;-78
2022/03/10 13:27:00;;;;;;;23.88;13.77;;;;;;;;;;5084728;28;20033;-79
2022/03/10 13:29:27;;;;;;;23.83;13.02;;;;;;;;;;5086087;28;20102;-80
2022/03/10 13:31:53;;;;;;;22.80;13.38;;;;;;;;;;5087608;28;20223;-79
2022/03/10 13:34:20;;;;;;;23.58;14.23;;;;;;;;;;5091986;28;20110;-79
2022/03/10 13:36:46;;;;;;;25.02;13.35;;;;;;;;;;5093614;28;20075;-79
2022/03/10 13:39:13;;;;;;;23.90;13.48;;;;;;;;;;5089652;28;20049;-80
2022/03/10 13:41:42;;;;;;;23.10;12.93;;;;;;;;;;5091793;28;20040;-79
2022/03/10 13:44:15;;;;;;;22.77;13.48;;;;;;;;;;5092017;28;20114;-79
2022/03/10 13:46:42;;;;;;;24.60;13.68;;;;;;;;;;5077044;28;20049;-79
2022/03/10 13:49:18;;;;;;;24.95;14.63;;;;;;;;;;5088438;28;20041;-79
2022/03/10 13:51:46;;;;;;;25.48;14.23;;;;;;;;;;5087863;28;20075;-79
2022/03/10 13:54:16;;;;;;;22.75;12.73;;;;;;;;;;5091219;28;20057;-79
2022/03/10 13:56:43;;;;;;;22.55;12.85;;;;;;;;;;5092750;28;20099;-79
2022/03/10 13:59:10;;;;;;;23.63;13.95;;;;;;;;;;5093896;28;20098;-79
2022/03/10 14:01:37;;;;;;;23.48;13.55;;;;;;;;;;5093516;28;20060;-79
2022/03/10 14:04:11;;;;;;;24.25;13.23;;;;;;;;;;5091417;28;20565;-79
2022/03/10 14:06:41;;;;;;;24.50;13.10;;;;;;;;;;5092952;28;20059;-79
2022/03/10 14:09:15;;;;;;;24.75;13.50;;;;;;;;;;5091438;28;20054;-79
2022/03/10 14:11:42;;;;;;;25.27;13.65;;;;;;;;;;5079129;28;20060;-79
2022/03/10 14:14:09;;;;;;;21.85;13.05;;;;;;;;;;5090508;28;20114;-79
2022/03/10 14:16:36;;;;;;;23.33;13.32;;;;;;;;;;5092702;28;20530;-79
2022/03/10 14:19:02;;;;;;;24.55;13.30;;;;;;;;;;5091793;28;20060;-79
2022/03/10 14:21:29;;;;;;;25.85;13.63;;;;;;;;;;5092319;28;20576;-79
2022/03/10 14:23:56;;;;;;;24.13;13.50;;;;;;;;;;5087477;28;20049;-79